Time;durP1;ratioP1;P1;durP2;ratioP2;P2;SDS_P1;SDS_P2;PMS_P1;PMS_P2;Temp;Humidity;BMP_temperature;BMP_pressure;BME280_temperature;BME280_humidity;BME280_pressure;Samples;Min_cycle;Max_cycle;Signal;HPM_P1;HPM_P2
2023/10/01 00:01:43;;;;;;;19.55;8.02;;;13.80;81.60;;;;;;4993191;28;20060;-89
2023/10/01 00:04:10;;;;;;;22.35;10.40;;;13.80;81.60;;;;;;4990671;28;20053;-87
2023/10/01 00:06:36;;;;;;;23.45;11.10;;;13.80;81.60;;;;;;5010949;28;20053;-87
2023/10/01 00:09:05;;;;;;;25.88;9.88;;;13.80;81.60;;;;;;5004528;28;20400;-88
2023/10/01 00:11:41;;;;;;;22.13;10.30;;;13.80;81.60;;;;;;5011163;28;20148;-88
2023/10/01 00:14:08;;;;;;;26.85;11.52;;;13.90;81.60;;;;;;5006430;28;20053;-87
2023/10/01 00:16:37;;;;;;;22.67;10.45;;;13.90;81.70;;;;;;5010692;28;20087;-88
2023/10/01 00:19:04;;;;;;;25.15;12.27;;;13.90;81.80;;;;;;5010863;28;20061;-87
2023/10/01 00:21:29;;;;;;;22.65;9.40;;;13.90;81.80;;;;;;5010152;28;20412;-88
2023/10/01 00:23:56;;;;;;;25.40;10.75;;;13.90;81.80;;;;;;5006105;28;20049;-88
2023/10/01 00:26:22;;;;;;;26.55;10.45;;;13.90;81.80;;;;;;5010584;28;20062;-87
2023/10/01 00:28:50;;;;;;;24.05;9.43;;;13.90;81.70;;;;;;5010686;28;20049;-88
2023/10/01 00:31:17;;;;;;;18.90;8.23;;;13.90;81.80;;;;;;5010412;28;20042;-87
2023/10/01 00:33:43;;;;;;;21.77;9.05;;;13.90;81.60;;;;;;5010445;28;20053;-88
2023/10/01 00:36:09;;;;;;;20.02;9.25;;;13.90;81.60;;;;;;5010322;28;20050;-87
2023/10/01 00:38:35;;;;;;;25.67;10.20;;;13.90;81.60;;;;;;5010150;28;20050;-87
2023/10/01 00:41:00;;;;;;;19.50;8.82;;;13.90;81.70;;;;;;5011461;28;20053;-87
2023/10/01 00:43:31;;;;;;;20.35;9.77;;;13.90;81.60;;;;;;5010395;28;20050;-87
2023/10/01 00:45:58;;;;;;;24.00;11.68;;;13.90;81.70;;;;;;5009834;28;20050;-88
2023/10/01 00:48:24;;;;;;;22.42;10.65;;;13.90;81.70;;;;;;4994196;28;20082;-88
2023/10/01 00:50:55;;;;;;;25.20;11.55;;;13.90;81.70;;;;;;5009978;28;20054;-88
2023/10/01 00:53:24;;;;;;;37.13;20.30;;;13.90;81.70;;;;;;5010562;28;20477;-89
2023/10/01 00:55:51;;;;;;;25.88;12.23;;;13.90;81.70;;;;;;5009794;28;20328;-89
2023/10/01 00:58:18;;;;;;;24.73;12.18;;;13.90;81.80;;;;;;5008071;28;20045;-88
2023/10/01 01:00:45;;;;;;;19.77;10.27;;;13.90;81.70;;;;;;5002442;28;20053;-88
2023/10/01 01:03:18;;;;;;;24.25;11.07;;;13.90;81.80;;;;;;5006568;28;20548;-87
2023/10/01 01:06:05;;;;;;;27.10;12.10;;;13.90;81.80;;;;;;5003528;28;20057;-87
2023/10/01 01:08:46;;;;;;;26.85;10.75;;;13.90;81.80;;;;;;4993560;28;20085;-87
2023/10/01 01:11:15;;;;;;;25.08;9.70;;;13.90;81.90;;;;;;5009517;28;20103;-87
2023/10/01 01:13:41;;;;;;;23.90;11.55;;;13.90;81.70;;;;;;5009783;28;20121;-88
2023/10/01 01:16:08;;;;;;;19.60;9.75;;;13.90;81.90;;;;;;4992832;28;20064;-87
2023/10/01 01:18:36;;;;;;;22.85;7.90;;;13.90;81.80;;;;;;4993337;28;20057;-87
2023/10/01 01:21:09;;;;;;;21.42;9.25;;;13.80;81.90;;;;;;5008430;28;20046;-88
2023/10/01 01:23:35;;;;;;;25.30;9.27;;;13.80;81.90;;;;;;4992958;28;20045;-87
2023/10/01 01:26:02;;;;;;;21.65;8.98;;;13.80;81.90;;;;;;5009767;28;20551;-87
2023/10/01 01:28:30;;;;;;;20.48;9.75;;;13.80;81.90;;;;;;5009592;28;20042;-87
2023/10/01 01:31:00;;;;;;;25.02;9.07;;;13.80;81.90;;;;;;4993402;28;20045;-87
2023/10/01 01:33:32;;;;;;;25.33;10.38;;;13.80;81.90;;;;;;5008162;28;20045;-88
2023/10/01 01:35:59;;;;;;;23.83;9.00;;;13.80;82.00;;;;;;5007495;28;20057;-91
2023/10/01 01:38:25;;;;;;;26.73;9.40;;;13.80;82.00;;;;;;5008752;28;20125;-87
2023/10/01 01:40:52;;;;;;;25.90;9.13;;;13.80;82.00;;;;;;5001545;28;20121;-89
2023/10/01 01:43:22;;;;;;;24.83;9.73;;;13.90;82.10;;;;;;5003105;28;20049;-88
2023/10/01 01:46:03;;;;;;;24.10;10.13;;;13.90;82.10;;;;;;5008290;28;20045;-88
2023/10/01 01:51:02;;;;;;;21.17;10.65;;;13.80;82.40;;;;;;5006275;28;19932;-88
2023/10/01 01:53:35;;;;;;;24.38;9.70;;;13.80;82.20;;;;;;5008494;28;20046;-87
2023/10/01 01:56:08;;;;;;;26.30;10.15;;;13.80;82.20;;;;;;5009097;28;20046;-88
2023/10/01 01:58:35;;;;;;;21.77;10.23;;;13.80;82.30;;;;;;5012136;28;20145;-87
2023/10/01 02:01:07;;;;;;;24.98;9.50;;;13.80;82.30;;;;;;5012874;28;20093;-87
2023/10/01 02:03:37;;;;;;;25.92;10.25;;;13.80;82.30;;;;;;5013246;28;20103;-88
2023/10/01 02:06:07;;;;;;;27.20;10.50;;;13.70;82.30;;;;;;5013088;28;20062;-88
2023/10/01 02:11:16;;;;;;;27.63;10.73;;;13.70;82.40;;;;;;5013031;28;20074;-87
2023/10/01 02:13:45;;;;;;;23.25;9.40;;;13.70;82.40;;;;;;5012790;28;20053;-87
2023/10/01 02:19:17;;;;;;;20.48;10.70;;;13.70;82.40;;;;;;5011527;28;20057;-91
2023/10/01 02:22:00;;;;;;;22.88;10.60;;;13.70;82.40;;;;;;5001261;28;20060;-87
2023/10/01 02:24:45;;;;;;;24.85;11.65;;;13.70;82.40;;;;;;5011627;28;20058;-89
2023/10/01 02:27:18;;;;;;;22.30;11.02;;;13.70;82.30;;;;;;4994948;28;20061;-88
2023/10/01 02:32:33;;;;;;;25.35;11.80;;;13.70;82.30;;;;;;5014005;28;20516;-88
2023/10/01 02:34:59;;;;;;;24.05;11.40;;;13.70;82.30;;;;;;5012779;28;20412;-87
2023/10/01 02:37:35;;;;;;;20.77;11.20;;;13.70;82.30;;;;;;5012346;28;20050;-88
2023/10/01 02:40:14;;;;;;;21.17;11.60;;;13.70;82.30;;;;;;5012476;28;20053;-88
2023/10/01 02:42:43;;;;;;;20.90;12.07;;;13.70;82.30;;;;;;5012797;28;20408;-87
2023/10/01 02:45:30;;;;;;;27.67;12.77;;;13.70;82.30;;;;;;5009416;28;20103;-88
2023/10/01 02:48:13;;;;;;;20.55;12.35;;;13.60;82.30;;;;;;4993342;28;20058;-88
2023/10/01 02:50:40;;;;;;;28.58;12.60;;;13.60;82.30;;;;;;5006332;28;20053;-88
2023/10/01 02:53:07;;;;;;;25.48;12.40;;;13.70;82.30;;;;;;5003785;28;20054;-87
2023/10/01 02:55:33;;;;;;;25.55;12.85;;;13.70;82.20;;;;;;5011978;28;20125;-88
2023/10/01 02:58:17;;;;;;;24.25;13.02;;;13.60;82.20;;;;;;5011951;28;20496;-88
2023/10/01 03:00:43;;;;;;;28.35;12.63;;;13.70;82.10;;;;;;5004131;28;20126;-87
2023/10/01 03:03:14;;;;;;;28.70;12.98;;;13.70;82.20;;;;;;4995560;28;20158;-88
2023/10/01 03:05:43;;;;;;;25.58;12.85;;;13.60;82.20;;;;;;5012383;28;20058;-87
2023/10/01 03:08:15;;;;;;;26.90;13.15;;;13.70;82.20;;;;;;4982386;28;20493;-87
2023/10/01 03:10:46;;;;;;;23.98;12.15;;;13.70;82.20;;;;;;5011524;28;20057;-88
2023/10/01 03:13:19;;;;;;;20.85;12.40;;;13.70;82.20;;;;;;4995571;28;20052;-85
2023/10/01 03:16:33;;;;;;;26.83;13.25;;;13.70;82.00;;;;;;4992054;28;20078;-87
2023/10/01 03:18:39;;;;;;;25.25;13.00;;;13.70;81.90;;;;;;4982799;28;20133;-87
2023/10/01 03:21:17;;;;;;;25.77;12.82;;;13.70;81.90;;;;;;4991694;28;20363;-89
2023/10/01 03:23:51;;;;;;;26.80;14.20;;;13.70;82.00;;;;;;4991663;28;20054;-88
2023/10/01 03:26:17;;;;;;;23.25;13.13;;;13.70;81.80;;;;;;4976999;28;20050;-86
2023/10/01 03:31:46;;;;;;;25.23;13.73;;;13.80;81.70;;;;;;4936023;29;20537;-87
2023/10/01 03:34:28;;;;;;;24.65;12.85;;;13.80;81.60;;;;;;4984587;28;20058;-88
2023/10/01 03:36:58;;;;;;;24.98;12.63;;;13.80;81.50;;;;;;4975826;28;20693;-88
2023/10/01 03:39:25;;;;;;;26.05;13.73;;;13.90;81.50;;;;;;4991732;28;20042;-87
2023/10/01 03:42:09;;;;;;;25.70;14.98;;;13.90;81.50;;;;;;4983692;28;20046;-90
2023/10/01 03:47:19;;;;;;;36.10;19.10;;;13.90;81.40;;;;;;5000891;28;20056;-90
2023/10/01 03:49:45;;;;;;;27.20;14.63;;;13.90;81.40;;;;;;4991716;28;20049;-88
2023/10/01 03:52:14;;;;;;;30.38;17.55;;;13.90;81.30;;;;;;4991963;28;20446;-88
2023/10/01 03:57:17;;;;;;;28.35;15.45;;;13.90;81.30;;;;;;4990847;28;20046;-88
2023/10/01 03:59:54;;;;;;;25.98;15.13;;;13.90;81.40;;;;;;4991460;28;20960;-87
2023/10/01 04:02:27;;;;;;;29.58;14.85;;;13.90;81.40;;;;;;4975453;28;20042;-88
2023/10/01 04:04:57;;;;;;;28.77;14.05;;;13.90;81.50;;;;;;4968818;28;20404;-87
2023/10/01 04:07:43;;;;;;;27.80;13.88;;;13.90;81.50;;;;;;4997053;28;20047;-87
2023/10/01 04:10:31;;;;;;;26.02;14.15;;;13.90;81.50;;;;;;4990876;28;20061;-87
2023/10/01 04:13:00;;;;;;;28.17;13.85;;;13.90;81.50;;;;;;4990603;28;20046;-88
2023/10/01 04:15:31;;;;;;;25.95;14.80;;;13.90;81.40;;;;;;4998987;28;20101;-88
2023/10/01 04:20:47;;;;;;;26.45;14.20;;;13.90;81.50;;;;;;5010035;28;20068;-87
2023/10/01 04:23:29;;;;;;;22.55;13.43;;;13.90;81.10;;;;;;5010792;28;20050;-87
2023/10/01 04:26:08;;;;;;;29.15;15.20;;;14.00;81.20;;;;;;5010609;28;20053;-87
2023/10/01 04:28:35;;;;;;;24.48;14.43;;;14.00;81.20;;;;;;5010535;28;20053;-88
2023/10/01 04:31:14;;;;;;;26.02;13.75;;;14.00;81.20;;;;;;4975994;28;20054;-88
2023/10/01 04:33:43;;;;;;;23.95;13.70;;;14.00;81.10;;;;;;4995097;28;20061;-88
2023/10/01 04:36:16;;;;;;;22.40;14.07;;;14.00;81.00;;;;;;5007004;28;20060;-91
2023/10/01 04:38:43;;;;;;;22.58;12.00;;;14.00;81.20;;;;;;5006494;28;20061;-88
2023/10/01 04:41:16;;;;;;;25.60;13.43;;;14.00;81.10;;;;;;5009057;28;20085;-88
2023/10/01 04:43:51;;;;;;;25.55;13.77;;;14.00;81.20;;;;;;5004929;28;20429;-88
2023/10/01 04:46:24;;;;;;;24.52;12.80;;;14.00;81.20;;;;;;4989981;28;20092;-90
2023/10/01 04:48:54;;;;;;;22.17;13.45;;;14.00;81.20;;;;;;4993053;28;20054;-90
2023/10/01 04:51:22;;;;;;;24.48;14.13;;;14.00;81.30;;;;;;5002489;28;20465;-89
2023/10/01 04:53:48;;;;;;;24.77;13.70;;;14.00;81.40;;;;;;5003229;28;20458;-88
2023/10/01 04:56:25;;;;;;;22.95;12.57;;;14.00;81.40;;;;;;5008061;28;20433;-88
2023/10/01 04:58:54;;;;;;;20.55;11.88;;;13.90;81.50;;;;;;4999287;28;20104;-88
2023/10/01 05:01:28;;;;;;;26.63;13.18;;;13.90;81.50;;;;;;5001515;28;20050;-88
2023/10/01 05:03:56;;;;;;;22.35;12.35;;;13.90;81.40;;;;;;5009632;28;20058;-88
2023/10/01 05:06:23;;;;;;;20.42;12.18;;;13.90;81.40;;;;;;5010257;28;20497;-89
2023/10/01 05:08:53;;;;;;;22.65;12.25;;;14.00;81.40;;;;;;4997932;28;20122;-91
2023/10/01 05:11:22;;;;;;;25.67;12.88;;;14.00;81.50;;;;;;5007544;28;20501;-88
2023/10/01 05:13:58;;;;;;;19.17;11.38;;;13.90;81.50;;;;;;5009799;28;20069;-88
2023/10/01 05:16:26;;;;;;;21.63;13.00;;;13.90;81.50;;;;;;5003559;28;20106;-88
2023/10/01 05:19:09;;;;;;;21.48;13.00;;;13.90;81.50;;;;;;5003385;28;20046;-89
2023/10/01 05:21:49;;;;;;;21.83;12.30;;;13.90;81.60;;;;;;5009622;28;20080;-87
2023/10/01 05:24:31;;;;;;;23.42;12.45;;;13.90;81.70;;;;;;5009833;28;20810;-88
2023/10/01 05:26:57;;;;;;;;;;;13.90;81.70;;;;;;5010292;28;20148;-91
2023/10/01 05:29:25;;;;;;;22.80;11.85;;;13.90;81.80;;;;;;5009847;28;19925;-91
2023/10/01 05:31:51;;;;;;;18.85;11.10;;;13.90;81.80;;;;;;4995676;28;20046;-88
2023/10/01 05:34:19;;;;;;;22.63;12.20;;;13.90;81.90;;;;;;5014485;28;20127;-87
2023/10/01 05:36:45;;;;;;;26.77;16.55;;;13.90;81.80;;;;;;4994829;28;20104;-89
2023/10/01 05:39:11;;;;;;;29.80;18.20;;;13.90;81.90;;;;;;5009386;28;20053;-93
2023/10/01 05:41:37;;;;;;;34.03;17.83;;;13.90;81.80;;;;;;5009877;28;20045;-88
2023/10/01 05:44:04;;;;;;;31.60;16.80;;;13.90;82.00;;;;;;5013869;28;20060;-89
2023/10/01 05:46:30;;;;;;;27.83;16.70;;;13.90;82.00;;;;;;4994207;28;20053;-91
2023/10/01 05:49:00;;;;;;;37.58;23.17;;;13.90;82.10;;;;;;5006181;28;20056;-89
2023/10/01 05:51:43;;;;;;;32.33;22.13;;;13.90;82.00;;;;;;5010374;28;20061;-90
2023/10/01 05:54:11;;;;;;;28.08;15.40;;;13.90;82.10;;;;;;5020252;28;20053;-88
2023/10/01 05:56:43;;;;;;;26.92;12.95;;;13.90;82.10;;;;;;5010930;28;20041;-92
2023/10/01 05:59:11;;;;;;;25.70;13.07;;;13.90;82.20;;;;;;5012354;28;20123;-89
2023/10/01 06:01:39;;;;;;;24.00;12.30;;;13.90;82.20;;;;;;4992239;28;20070;-88
2023/10/01 06:04:09;;;;;;;26.63;14.02;;;13.90;82.20;;;;;;5005829;28;20054;-89
2023/10/01 06:06:36;;;;;;;25.92;12.57;;;13.90;82.30;;;;;;5002619;28;20081;-90
2023/10/01 06:09:09;;;;;;;22.58;12.13;;;13.90;82.40;;;;;;5010542;28;20054;-90
2023/10/01 06:11:42;;;;;;;22.85;12.20;;;13.90;82.40;;;;;;5009207;28;20053;-88
2023/10/01 06:14:36;;;;;;;25.45;12.45;;;13.90;82.40;;;;;;5011544;28;20092;-88
2023/10/01 06:17:02;;;;;;;25.33;12.02;;;13.90;82.50;;;;;;4986965;28;20080;-87
2023/10/01 06:19:34;;;;;;;20.05;11.27;;;13.90;82.60;;;;;;4991164;28;20050;-89
2023/10/01 06:22:12;;;;;;;23.90;12.00;;;13.90;82.60;;;;;;4992614;28;20054;-88
2023/10/01 06:24:46;;;;;;;23.35;11.63;;;13.90;82.60;;;;;;4980811;28;20513;-88
2023/10/01 06:27:17;;;;;;;28.23;11.95;;;13.90;82.70;;;;;;4993306;28;20885;-87
2023/10/01 06:29:49;;;;;;;28.67;12.15;;;13.90;82.70;;;;;;4993463;28;20100;-87
2023/10/01 06:32:20;;;;;;;22.95;11.77;;;13.90;82.60;;;;;;4977129;28;20104;-88
2023/10/01 06:34:47;;;;;;;25.40;12.43;;;13.90;82.60;;;;;;4993260;28;20120;-88
2023/10/01 06:37:13;;;;;;;21.17;12.20;;;13.90;82.60;;;;;;4992371;28;20281;-89
2023/10/01 06:39:41;;;;;;;17.95;10.68;;;14.00;82.70;;;;;;4976812;28;20065;-88
2023/10/01 06:42:19;;;;;;;24.88;11.70;;;14.00;82.60;;;;;;4976278;28;20058;-88
2023/10/01 06:44:50;;;;;;;19.30;11.60;;;14.00;82.70;;;;;;4993958;28;20046;-88
2023/10/01 06:47:22;;;;;;;28.67;11.73;;;14.00;82.70;;;;;;4993569;28;20573;-87
2023/10/01 06:52:35;;;;;;;19.95;11.07;;;14.00;82.70;;;;;;4991447;28;20065;-92
2023/10/01 06:55:04;;;;;;;24.17;11.77;;;14.10;82.60;;;;;;4991550;28;20359;-88
2023/10/01 06:57:33;;;;;;;24.55;11.68;;;14.00;82.60;;;;;;4991430;28;20057;-89
2023/10/01 06:59:59;;;;;;;22.48;11.52;;;14.10;82.60;;;;;;4991358;28;20046;-89
2023/10/01 07:02:26;;;;;;;26.42;11.70;;;14.10;82.80;;;;;;4975253;28;20120;-88
2023/10/01 07:04:58;;;;;;;21.08;11.38;;;14.20;82.70;;;;;;4994995;28;20077;-90
2023/10/01 07:07:28;;;;;;;21.10;11.05;;;14.20;82.80;;;;;;4992092;28;20057;-88
2023/10/01 07:09:59;;;;;;;22.67;11.98;;;14.30;82.80;;;;;;4991496;28;20038;-91
2023/10/01 07:12:25;;;;;;;21.95;11.48;;;14.30;83.00;;;;;;4991917;28;20603;-88
2023/10/01 07:14:52;;;;;;;25.30;11.77;;;14.40;83.00;;;;;;4979948;28;20054;-91
2023/10/01 07:17:25;;;;;;;25.77;12.07;;;14.40;83.00;;;;;;4998206;28;20061;-89
2023/10/01 07:20:18;;;;;;;25.60;11.82;;;14.50;82.90;;;;;;4995077;28;20046;-91
2023/10/01 07:22:44;;;;;;;23.98;11.18;;;14.50;82.70;;;;;;5011355;28;20095;-89
2023/10/01 07:25:28;;;;;;;24.05;11.85;;;14.50;82.60;;;;;;4991399;28;20038;-89
2023/10/01 07:27:57;;;;;;;23.40;11.75;;;14.50;82.60;;;;;;4992077;28;20085;-89
2023/10/01 07:30:39;;;;;;;21.75;10.73;;;14.60;82.50;;;;;;4990880;28;20085;-89
2023/10/01 07:33:11;;;;;;;26.00;11.30;;;14.60;82.40;;;;;;5011773;28;20488;-90
2023/10/01 07:35:45;;;;;;;20.95;11.07;;;14.60;82.40;;;;;;5010944;28;20455;-90
2023/10/01 07:38:15;;;;;;;22.58;11.10;;;14.70;82.20;;;;;;5011726;28;20042;-90
2023/10/01 07:40:57;;;;;;;18.73;10.23;;;14.70;82.30;;;;;;4995889;28;20077;-89
2023/10/01 07:43:24;;;;;;;22.52;11.02;;;14.70;82.10;;;;;;5007843;28;20058;-88
2023/10/01 07:45:58;;;;;;;22.40;10.95;;;14.70;82.20;;;;;;5011056;28;20049;-88
2023/10/01 07:48:31;;;;;;;25.35;11.38;;;14.70;82.00;;;;;;5011214;28;20053;-92
2023/10/01 07:51:02;;;;;;;20.23;10.32;;;14.70;81.90;;;;;;5010643;28;20053;-88
2023/10/01 07:53:32;;;;;;;;;;;14.70;81.80;;;;;;5011325;28;20046;-89
2023/10/01 07:56:07;;;;;;;24.98;10.82;;;14.70;81.70;;;;;;5009873;28;19921;-87
2023/10/01 07:58:46;;;;;;;21.63;10.57;;;14.70;81.80;;;;;;5010565;28;20154;-88
2023/10/01 08:03:56;;;;;;;24.98;10.63;;;14.70;81.80;;;;;;5009072;28;20081;-89
2023/10/01 08:06:29;;;;;;;24.27;10.95;;;14.70;81.70;;;;;;5012100;28;20042;-89
2023/10/01 08:09:01;;;;;;;28.13;11.40;;;14.70;81.70;;;;;;5011442;28;20393;-88
2023/10/01 08:14:12;;;;;;;22.95;10.00;;;14.70;81.80;;;;;;5012814;28;20184;-91
2023/10/01 08:16:48;;;;;;;22.27;11.02;;;14.80;81.70;;;;;;5011044;28;20225;-88
2023/10/01 08:19:20;;;;;;;20.98;10.18;;;14.80;81.70;;;;;;5010578;28;20461;-88
2023/10/01 08:21:53;;;;;;;23.92;11.10;;;14.80;81.70;;;;;;5017185;28;20108;-87
2023/10/01 08:24:20;;;;;;;20.65;9.32;;;14.90;81.50;;;;;;5009987;28;20045;-89
2023/10/01 08:27:12;;;;;;;27.33;10.13;;;14.90;81.50;;;;;;5011031;28;20050;-87
2023/10/01 08:32:22;;;;;;;19.92;9.32;;;15.00;81.50;;;;;;4997061;28;20140;-90
2023/10/01 08:35:06;;;;;;;26.85;10.25;;;15.00;81.30;;;;;;4994887;28;20057;-87
2023/10/01 08:37:37;;;;;;;23.17;10.43;;;15.00;81.20;;;;;;4991268;28;20122;-89
2023/10/01 08:40:10;;;;;;;25.27;10.65;;;15.00;81.20;;;;;;5005921;28;20551;-88
2023/10/01 08:42:43;;;;;;;24.88;10.45;;;15.10;81.20;;;;;;5008326;28;20050;-89
2023/10/01 08:45:12;;;;;;;22.55;10.30;;;15.20;81.40;;;;;;5010379;28;20628;-89
2023/10/01 08:47:38;;;;;;;18.60;9.63;;;15.20;81.10;;;;;;5010143;28;20041;-89
2023/10/01 08:53:09;;;;;;;20.52;9.95;;;15.30;81.00;;;;;;5006444;28;20453;-89
2023/10/01 08:58:48;;;;;;;18.08;9.80;;;15.40;80.80;;;;;;4993315;28;19979;-89
2023/10/01 09:01:21;;;;;;;23.00;9.77;;;15.40;81.30;;;;;;4995745;28;20050;-88
2023/10/01 09:03:47;;;;;;;22.25;10.05;;;15.50;81.40;;;;;;5000180;28;20065;-88
2023/10/01 09:06:26;;;;;;;21.05;10.13;;;15.60;81.20;;;;;;5003063;28;20062;-88
2023/10/01 09:08:59;;;;;;;19.52;10.73;;;15.60;81.40;;;;;;5008293;28;20093;-88
2023/10/01 09:11:42;;;;;;;20.52;10.60;;;15.60;81.20;;;;;;4987190;28;20053;-90
2023/10/01 09:14:54;;;;;;;21.75;10.50;;;15.80;81.30;;;;;;4989482;28;20096;-89
2023/10/01 09:17:56;;;;;;;29.67;11.10;;;16.00;81.20;;;;;;5005685;28;20405;-89
2023/10/01 09:26:53;;;;;;;21.98;10.38;;;16.50;81.00;;;;;;5004027;28;20104;-90
2023/10/01 09:29:57;;;;;;;24.67;10.43;;;16.60;80.70;;;;;;4988161;28;20116;-92
2023/10/01 09:32:54;;;;;;;22.98;10.23;;;16.80;80.40;;;;;;5008932;28;20725;-90
2023/10/01 09:39:03;;;;;;;29.35;11.38;;;17.00;80.40;;;;;;5007815;28;20056;-90
2023/10/01 09:41:52;;;;;;;26.55;10.43;;;17.10;80.00;;;;;;4979733;28;20050;-89
2023/10/01 09:44:46;;;;;;;24.02;9.80;;;17.20;80.40;;;;;;4982133;28;20050;-91
2023/10/01 09:47:15;;;;;;;24.85;10.57;;;17.20;80.40;;;;;;4977896;28;20054;-89
2023/10/01 09:49:57;;;;;;;29.35;10.88;;;17.40;80.50;;;;;;4954079;28;20144;-91
2023/10/01 09:52:30;;;;;;;24.63;10.48;;;17.50;80.50;;;;;;4954037;28;20068;-90
2023/10/01 09:55:31;;;;;;;26.75;10.20;;;17.50;80.40;;;;;;4952749;28;20061;-91
2023/10/01 09:57:58;;;;;;;21.35;10.68;;;17.60;80.30;;;;;;4948440;28;20125;-89
2023/10/01 10:00:42;;;;;;;22.85;10.85;;;17.70;80.30;;;;;;4951924;28;20042;-95
2023/10/01 10:03:12;;;;;;;24.20;10.60;;;17.80;80.10;;;;;;4968332;28;20051;-93
2023/10/01 10:05:42;;;;;;;22.30;9.90;;;17.80;79.80;;;;;;4976314;28;20138;-90
2023/10/01 10:08:15;;;;;;;25.73;10.55;;;17.80;79.60;;;;;;4971067;28;20120;-90
2023/10/01 10:10:49;;;;;;;23.88;10.18;;;17.90;79.80;;;;;;4957615;28;20054;-91
2023/10/01 10:13:37;;;;;;;20.50;9.93;;;18.00;79.80;;;;;;4971935;28;20568;-88
2023/10/01 10:19:16;;;;;;;;;;;18.20;79.30;;;;;;4942494;28;20055;-92
2023/10/01 10:24:29;;;;;;;26.17;10.35;;;18.50;78.60;;;;;;5001690;28;20050;-91
2023/10/01 10:27:03;;;;;;;21.45;10.38;;;18.70;77.90;;;;;;5013082;28;20124;-90
2023/10/01 10:29:47;;;;;;;24.88;10.52;;;18.70;77.80;;;;;;4992955;28;20041;-93
2023/10/01 10:32:16;;;;;;;26.67;9.80;;;18.80;77.10;;;;;;4994338;28;20286;-89
2023/10/01 10:35:04;;;;;;;25.55;10.30;;;18.80;77.50;;;;;;5010062;28;20050;-92
2023/10/01 10:42:57;;;;;;;21.70;10.02;;;18.80;77.90;;;;;;4984381;28;20057;-68
2023/10/01 10:45:24;;;;;;;18.52;9.43;;;18.90;77.60;;;;;;4987157;28;20047;-68
2023/10/01 10:48:03;;;;;;;27.50;9.93;;;18.80;77.30;;;;;;4981945;28;20057;-65
2023/10/01 10:50:56;;;;;;;22.88;9.82;;;18.80;77.20;;;;;;4982586;28;20073;-69
2023/10/01 10:53:40;;;;;;;22.30;10.07;;;18.70;76.60;;;;;;4985233;28;20050;-68
2023/10/01 10:56:15;;;;;;;18.83;9.15;;;18.70;76.80;;;;;;4990766;28;20478;-67
2023/10/01 10:58:44;;;;;;;31.45;10.93;;;18.60;76.90;;;;;;4992442;28;20129;-68
2023/10/01 11:01:19;;;;;;;22.58;10.32;;;18.60;76.90;;;;;;5008683;28;20053;-66
2023/10/01 11:03:49;;;;;;;24.35;10.55;;;18.60;76.60;;;;;;5011991;28;20049;-67
2023/10/01 11:06:44;;;;;;;21.05;9.80;;;18.60;76.90;;;;;;5011070;28;20519;-67
2023/10/01 11:09:22;;;;;;;28.67;11.18;;;18.60;76.70;;;;;;5011482;28;20087;-67
2023/10/01 11:11:52;;;;;;;26.05;10.60;;;18.60;76.60;;;;;;5011046;28;20169;-65
2023/10/01 11:14:19;;;;;;;25.25;10.60;;;18.60;76.90;;;;;;5011283;28;20060;-68
2023/10/01 11:16:49;;;;;;;22.65;10.48;;;18.60;76.90;;;;;;4998737;28;20046;-67
2023/10/01 11:19:35;;;;;;;25.08;9.82;;;18.60;77.30;;;;;;4984580;28;20053;-67
2023/10/01 11:22:03;;;;;;;23.60;10.20;;;18.70;77.50;;;;;;4991557;28;20054;-67
2023/10/01 11:24:39;;;;;;;25.13;9.98;;;18.80;77.30;;;;;;4992122;28;20076;-67
2023/10/01 11:27:17;;;;;;;24.88;10.30;;;18.80;76.30;;;;;;4974708;28;20042;-67
2023/10/01 11:29:58;;;;;;;25.70;9.82;;;18.90;76.60;;;;;;4991558;28;20086;-67
2023/10/01 11:36:06;;;;;;;21.40;9.48;;;19.10;76.50;;;;;;4963358;28;20049;-67
2023/10/01 11:38:34;;;;;;;21.50;9.27;;;19.10;75.90;;;;;;4991709;28;20424;-66
2023/10/01 11:41:07;;;;;;;20.45;9.73;;;19.10;75.70;;;;;;4988933;28;20121;-67
2023/10/01 11:43:42;;;;;;;17.48;10.00;;;19.10;75.70;;;;;;4984075;28;20125;-67
2023/10/01 11:49:28;;;;;;;21.38;9.25;;;19.10;74.80;;;;;;4979772;28;20046;-66
2023/10/01 11:52:05;;;;;;;23.65;9.88;;;19.10;75.30;;;;;;4981559;28;20404;-68
2023/10/01 11:54:43;;;;;;;22.30;9.90;;;19.10;75.10;;;;;;4962790;28;20104;-66
2023/10/01 11:57:31;;;;;;;24.63;9.48;;;19.10;74.80;;;;;;4981437;28;20118;-68
2023/10/01 11:59:58;;;;;;;22.55;9.95;;;19.10;75.00;;;;;;4981052;28;20054;-69
2023/10/01 12:02:33;;;;;;;19.10;9.57;;;19.10;75.00;;;;;;4978003;28;20093;-68
2023/10/01 12:05:06;;;;;;;22.30;10.05;;;19.10;74.80;;;;;;4979473;28;20049;-67
2023/10/01 12:07:45;;;;;;;26.08;10.90;;;19.10;75.10;;;;;;4970035;28;20464;-67
2023/10/01 12:10:35;;;;;;;25.30;10.40;;;19.10;74.90;;;;;;4982907;28;20058;-67
2023/10/01 12:13:01;;;;;;;19.52;9.98;;;19.20;74.90;;;;;;4981703;28;20520;-67
2023/10/01 12:18:36;;;;;;;23.77;9.70;;;19.40;75.30;;;;;;4973398;28;20047;-67
2023/10/01 12:21:24;;;;;;;21.45;9.85;;;19.50;74.70;;;;;;4967484;28;20050;-66
2023/10/01 12:23:49;;;;;;;24.67;11.00;;;19.50;74.50;;;;;;4982515;28;20051;-67
2023/10/01 12:29:11;;;;;;;20.52;9.48;;;19.50;74.20;;;;;;4986717;28;20448;-67
2023/10/01 12:31:26;;;;;;;23.98;10.60;;;19.50;74.00;;;;;;4983321;28;20395;-66
2023/10/01 12:33:58;;;;;;;21.13;10.27;;;19.50;74.10;;;;;;4988005;28;20101;-66
2023/10/01 12:41:56;;;;;;;21.30;10.27;;;19.70;73.70;;;;;;4976388;28;20113;-67
2023/10/01 12:44:28;;;;;;;25.10;10.45;;;19.70;73.50;;;;;;4986998;28;20042;-67
2023/10/01 12:47:01;;;;;;;18.95;10.10;;;19.80;73.10;;;;;;4986330;28;20057;-67
2023/10/01 12:49:28;;;;;;;25.80;10.43;;;19.90;72.80;;;;;;4979754;28;20046;-68
2023/10/01 12:51:54;;;;;;;22.80;10.90;;;19.90;72.80;;;;;;4983386;28;20414;-68
2023/10/01 12:54:27;;;;;;;18.63;10.73;;;19.90;72.30;;;;;;4982648;28;20150;-66
2023/10/01 12:57:10;;;;;;;23.20;10.95;;;19.90;72.50;;;;;;4988397;28;20041;-66
2023/10/01 12:59:39;;;;;;;25.58;11.02;;;19.90;72.70;;;;;;4984622;28;20031;-66
2023/10/01 13:02:21;;;;;;;26.55;10.88;;;19.90;72.70;;;;;;4986796;28;20049;-68
2023/10/01 13:05:16;;;;;;;22.02;10.68;;;19.90;72.10;;;;;;4978563;28;20458;-67
2023/10/01 13:07:37;;;;;;;24.65;10.93;;;19.90;72.30;;;;;;4989440;28;20050;-64
2023/10/01 13:10:06;;;;;;;27.20;11.15;;;19.90;72.70;;;;;;4989069;28;20050;-67
2023/10/01 13:12:39;;;;;;;24.17;11.32;;;19.90;72.60;;;;;;4987726;28;20344;-67
2023/10/01 13:15:15;;;;;;;24.92;11.15;;;20.00;72.60;;;;;;4988663;28;20058;-68
2023/10/01 13:17:44;;;;;;;25.15;12.23;;;20.00;72.70;;;;;;4992681;28;20045;-67
2023/10/01 13:20:25;;;;;;;24.42;11.27;;;20.00;72.50;;;;;;4988739;28;20065;-67
2023/10/01 13:22:52;;;;;;;;;;;20.00;72.60;;;;;;4990869;28;20089;-65
2023/10/01 13:25:24;;;;;;;23.25;10.60;;;20.00;72.30;;;;;;4989276;28;19972;-67
2023/10/01 13:28:01;;;;;;;23.15;11.65;;;20.00;73.10;;;;;;4988994;28;20049;-68
2023/10/01 13:33:20;;;;;;;24.55;11.50;;;20.00;72.70;;;;;;4957558;28;20046;-67
2023/10/01 13:35:50;;;;;;;21.70;10.82;;;20.00;72.80;;;;;;4990826;28;20347;-68
2023/10/01 14:11:09;;;;;;;24.83;10.82;;;20.10;72.50;;;;;;4991755;28;20037;-67
2023/10/01 14:13:35;;;;;;;22.88;10.57;;;20.10;72.30;;;;;;4989457;28;20038;-65
2023/10/01 14:16:17;;;;;;;23.92;11.50;;;20.10;72.20;;;;;;4987760;28;20042;-67
2023/10/01 14:21:51;;;;;;;26.25;10.65;;;20.10;71.90;;;;;;4965232;28;20094;-67
2023/10/01 14:24:25;;;;;;;25.17;11.25;;;20.10;72.50;;;;;;4992229;28;20062;-67
2023/10/01 14:26:51;;;;;;;24.52;11.23;;;20.10;72.90;;;;;;4963958;28;20466;-66
2023/10/01 14:29:24;;;;;;;23.70;10.65;;;20.10;72.70;;;;;;4972991;28;20050;-66
2023/10/01 14:31:52;;;;;;;23.42;11.40;;;20.10;72.50;;;;;;4997979;28;20053;-66
2023/10/01 14:34:20;;;;;;;23.75;11.88;;;20.20;72.30;;;;;;4989671;28;20050;-67
2023/10/01 14:36:47;;;;;;;23.73;11.05;;;20.20;72.50;;;;;;4989810;28;20489;-68
2023/10/01 14:39:14;;;;;;;23.83;10.82;;;20.10;72.00;;;;;;4989833;28;20062;-67
2023/10/01 14:41:45;;;;;;;23.15;10.77;;;20.10;71.90;;;;;;4990089;28;20417;-69
2023/10/01 14:44:13;;;;;;;21.75;10.20;;;20.10;71.60;;;;;;4987037;28;20104;-66
2023/10/01 14:46:47;;;;;;;22.20;11.48;;;20.00;71.50;;;;;;4997001;28;20061;-67
2023/10/01 14:49:17;;;;;;;19.83;10.07;;;20.10;71.70;;;;;;4981535;28;20063;-67
2023/10/01 14:51:48;;;;;;;28.17;10.82;;;20.10;71.70;;;;;;4989762;28;20054;-67
2023/10/01 14:54:18;;;;;;;20.45;10.45;;;20.10;71.70;;;;;;4990453;28;20062;-67
2023/10/01 14:56:56;;;;;;;23.95;10.88;;;20.10;71.90;;;;;;4989932;28;20128;-67